Time;durP1;ratioP1;P1;durP2;ratioP2;P2;SDS_P1;SDS_P2;PMS_P1;PMS_P2;Temp;Humidity;BMP_temperature;BMP_pressure;BME280_temperature;BME280_humidity;BME280_pressure;Samples;Min_cycle;Max_cycle;Signal;HPM_P1;HPM_P2
2023/03/25 00:00:56;;;;;;;8.18;3.20;;;9.90;99.90;;;;;;5051597;28;20123;-65
2023/03/25 00:03:25;;;;;;;5.28;2.47;;;9.90;99.90;;;;;;5053308;28;20045;-66
2023/03/25 00:05:54;;;;;;;7.95;3.40;;;9.90;99.90;;;;;;5053602;28;20095;-66
2023/03/25 00:08:20;;;;;;;11.93;3.45;;;9.90;99.90;;;;;;5048212;28;20514;-66
2023/03/25 00:10:55;;;;;;;8.65;3.03;;;9.90;99.90;;;;;;5051953;28;20108;-66
2023/03/25 00:13:22;;;;;;;8.73;3.50;;;10.00;99.90;;;;;;5053118;28;20686;-66
2023/03/25 00:15:52;;;;;;;8.15;3.42;;;9.90;99.90;;;;;;5043816;28;20049;-66
2023/03/25 00:18:21;;;;;;;8.93;3.80;;;9.90;99.90;;;;;;5052319;28;20107;-67
2023/03/25 00:20:52;;;;;;;7.35;3.33;;;9.90;99.90;;;;;;5051635;28;20045;-66
2023/03/25 00:23:21;;;;;;;6.30;3.70;;;9.90;99.90;;;;;;5048371;28;20471;-67
2023/03/25 00:25:48;;;;;;;10.18;5.03;;;9.80;99.90;;;;;;5040445;28;20052;-66
2023/03/25 00:28:15;;;;;;;11.45;5.00;;;9.80;99.90;;;;;;5046108;28;20037;-66
2023/03/25 00:30:43;;;;;;;7.25;4.32;;;9.90;99.90;;;;;;5047642;28;20038;-66
2023/03/25 00:33:09;;;;;;;10.30;4.95;;;9.90;99.90;;;;;;5045682;28;20091;-65
2023/03/25 00:35:37;;;;;;;10.07;5.03;;;9.90;99.90;;;;;;5052469;28;20119;-64
2023/03/25 00:38:03;;;;;;;12.55;5.43;;;9.90;99.90;;;;;;5046418;28;20029;-66
2023/03/25 00:40:33;;;;;;;10.88;5.43;;;9.90;99.90;;;;;;5046262;28;20025;-65
2023/03/25 00:43:00;;;;;;;8.45;4.80;;;9.80;99.90;;;;;;5041177;28;20068;-65
2023/03/25 00:45:26;;;;;;;11.10;5.78;;;9.70;99.90;;;;;;5044244;28;20033;-66
2023/03/25 00:47:52;;;;;;;15.73;4.63;;;9.80;99.90;;;;;;5043251;28;20037;-66
2023/03/25 00:50:18;;;;;;;11.15;5.53;;;9.70;99.90;;;;;;5049241;28;20036;-66
2023/03/25 00:52:44;;;;;;;10.90;5.60;;;9.70;99.90;;;;;;5051619;28;20041;-65
2023/03/25 00:55:09;;;;;;;10.13;5.53;;;9.70;99.90;;;;;;5044483;28;20090;-65
2023/03/25 00:57:35;;;;;;;8.55;4.82;;;9.70;99.90;;;;;;5041846;28;20045;-65
2023/03/25 01:00:05;;;;;;;11.93;5.00;;;9.70;99.90;;;;;;5032490;28;20037;-65
2023/03/25 01:02:32;;;;;;;9.52;5.00;;;9.70;99.90;;;;;;5042567;28;20068;-65
2023/03/25 01:04:58;;;;;;;13.90;4.68;;;9.70;99.90;;;;;;5042147;28;20269;-65
2023/03/25 01:07:24;;;;;;;11.95;5.18;;;9.70;99.90;;;;;;5038654;28;20040;-65
2023/03/25 01:09:50;;;;;;;12.63;4.47;;;9.70;99.90;;;;;;5051663;28;20179;-65
2023/03/25 01:12:17;;;;;;;12.57;4.55;;;9.70;99.90;;;;;;5045912;28;20126;-65
2023/03/25 01:14:43;;;;;;;8.32;4.38;;;9.70;99.90;;;;;;5038282;28;20057;-65
2023/03/25 01:17:09;;;;;;;8.50;4.30;;;9.60;99.90;;;;;;5051605;28;20025;-65
2023/03/25 01:19:35;;;;;;;11.68;4.18;;;9.60;99.90;;;;;;5051462;28;20036;-66
2023/03/25 01:22:01;;;;;;;11.82;4.25;;;9.60;99.90;;;;;;5039283;28;20690;-66
2023/03/25 01:24:27;;;;;;;11.93;4.40;;;9.60;99.90;;;;;;5051311;28;20033;-66
2023/03/25 01:26:52;;;;;;;11.88;4.43;;;9.60;99.90;;;;;;5032249;28;20049;-66
2023/03/25 01:29:20;;;;;;;8.45;3.67;;;9.60;99.90;;;;;;5031001;28;20124;-66
2023/03/25 01:31:46;;;;;;;10.15;3.92;;;9.60;99.90;;;;;;5049477;28;20045;-66
2023/03/25 01:34:13;;;;;;;11.98;4.22;;;9.70;99.90;;;;;;5051412;28;20037;-66
2023/03/25 01:36:39;;;;;;;13.00;3.55;;;9.70;99.90;;;;;;5050568;28;20051;-66
2023/03/25 01:39:06;;;;;;;12.15;3.40;;;9.60;99.90;;;;;;5037384;28;20032;-66
2023/03/25 01:41:34;;;;;;;13.13;3.70;;;9.60;99.90;;;;;;5048129;28;20502;-66
2023/03/25 01:44:01;;;;;;;11.40;3.78;;;9.60;99.90;;;;;;5050407;28;20040;-66
2023/03/25 01:46:26;;;;;;;11.45;3.50;;;9.50;99.90;;;;;;5041849;28;20052;-66
2023/03/25 01:48:52;;;;;;;15.20;3.78;;;9.50;99.90;;;;;;5049122;28;20041;-66
2023/03/25 01:51:22;;;;;;;9.85;3.15;;;9.50;99.90;;;;;;5049810;28;20414;-66
2023/03/25 01:53:52;;;;;;;7.70;2.78;;;9.50;99.90;;;;;;5046086;28;20099;-66
2023/03/25 01:56:21;;;;;;;11.68;3.42;;;9.50;99.90;;;;;;5038378;28;20053;-66
2023/03/25 01:58:48;;;;;;;12.68;3.38;;;9.50;99.90;;;;;;5049940;28;20029;-66
2023/03/25 02:01:20;;;;;;;11.85;2.90;;;9.50;99.90;;;;;;5050105;28;20037;-66
2023/03/25 02:03:51;;;;;;;10.75;2.92;;;9.40;99.90;;;;;;5043866;28;20041;-66
2023/03/25 02:06:25;;;;;;;12.82;2.58;;;9.40;99.90;;;;;;5042851;28;20047;-66
2023/03/25 02:08:53;;;;;;;6.82;2.50;;;9.30;99.90;;;;;;5050715;28;20045;-66
2023/03/25 02:11:19;;;;;;;8.38;2.30;;;9.20;99.90;;;;;;5045697;28;20509;-66
2023/03/25 02:13:45;;;;;;;8.18;2.78;;;9.10;99.90;;;;;;5049474;28;20037;-67
2023/03/25 02:16:29;;;;;;;11.32;3.10;;;9.00;99.90;;;;;;5051034;28;20041;-65
2023/03/25 02:19:00;;;;;;;11.63;3.35;;;8.90;99.90;;;;;;5047916;28;20040;-64
2023/03/25 02:21:49;;;;;;;12.35;2.97;;;8.90;99.90;;;;;;5060992;28;20040;-65
2023/03/25 02:24:34;;;;;;;15.40;3.45;;;8.90;99.90;;;;;;5013962;28;20041;-65
2023/03/25 02:27:26;;;;;;;14.73;3.80;;;8.80;99.90;;;;;;5052676;28;20040;-65
2023/03/25 02:30:08;;;;;;;14.63;3.63;;;8.80;99.90;;;;;;5046471;28;20044;-65
2023/03/25 02:32:33;;;;;;;18.48;4.35;;;8.80;99.90;;;;;;5036239;28;20410;-65
2023/03/25 02:35:20;;;;;;;17.40;3.80;;;8.80;99.90;;;;;;5054772;28;20048;-65
2023/03/25 02:38:10;;;;;;;14.40;3.60;;;8.90;99.90;;;;;;5047828;28;20037;-65
2023/03/25 02:40:51;;;;;;;14.05;3.13;;;8.90;99.90;;;;;;5044833;28;20041;-65
2023/03/25 02:43:52;;;;;;;22.17;3.40;;;8.90;99.90;;;;;;5067829;28;20083;-66
2023/03/25 02:46:18;;;;;;;11.98;3.88;;;8.90;99.90;;;;;;5037664;28;20084;-65
2023/03/25 02:48:55;;;;;;;16.77;3.95;;;8.90;99.90;;;;;;5054498;28;20091;-65
2023/03/25 02:51:27;;;;;;;13.93;3.67;;;8.90;99.90;;;;;;5075019;28;20241;-66
2023/03/25 02:53:57;;;;;;;18.48;3.55;;;8.90;99.90;;;;;;5060167;28;20479;-65
2023/03/25 02:56:25;;;;;;;16.50;3.50;;;8.90;99.90;;;;;;5046529;28;20033;-65
2023/03/25 02:58:57;;;;;;;13.25;2.92;;;8.80;99.90;;;;;;5053624;28;20103;-65
2023/03/25 03:01:25;;;;;;;;;;;8.80;99.90;;;;;;5051556;28;20368;-65
2023/03/25 03:03:52;;;;;;;11.32;3.20;;;8.80;99.90;;;;;;5046878;28;19920;-65
2023/03/25 03:06:18;;;;;;;21.13;3.75;;;8.80;99.90;;;;;;5054311;28;20033;-65
2023/03/25 03:08:49;;;;;;;15.40;3.83;;;8.80;99.90;;;;;;5047592;28;20415;-65
2023/03/25 03:11:46;;;;;;;13.77;3.30;;;8.80;99.90;;;;;;5046504;28;20105;-65
2023/03/25 03:14:49;;;;;;;14.60;3.72;;;8.90;99.90;;;;;;5053913;28;20069;-65
2023/03/25 03:17:25;;;;;;;11.32;2.97;;;8.90;99.90;;;;;;5041806;28;20532;-64
2023/03/25 03:19:56;;;;;;;12.82;3.25;;;8.90;99.90;;;;;;5044109;28;20044;-65
2023/03/25 03:22:44;;;;;;;13.48;3.00;;;8.90;99.90;;;;;;5053480;28;20033;-65
2023/03/25 03:25:21;;;;;;;18.48;3.83;;;9.00;99.90;;;;;;5054364;28;20037;-65
2023/03/25 03:27:53;;;;;;;17.35;3.28;;;9.00;99.90;;;;;;5043288;28;20037;-65
2023/03/25 03:30:45;;;;;;;10.95;3.25;;;9.00;99.90;;;;;;5052922;28;20043;-65
2023/03/25 03:33:26;;;;;;;13.63;3.53;;;9.00;99.90;;;;;;5053102;28;20045;-65
2023/03/25 03:36:03;;;;;;;12.63;3.58;;;9.00;99.90;;;;;;5042583;28;20069;-65
2023/03/25 03:38:39;;;;;;;13.15;3.55;;;8.90;99.90;;;;;;5048359;28;20045;-65
2023/03/25 03:41:09;;;;;;;13.60;3.22;;;9.00;99.90;;;;;;5053993;28;20051;-65
2023/03/25 03:44:06;;;;;;;15.63;3.50;;;9.00;99.90;;;;;;5049913;28;20117;-64
2023/03/25 03:46:36;;;;;;;18.13;3.67;;;8.90;99.90;;;;;;5049010;28;20040;-65
2023/03/25 03:49:08;;;;;;;14.75;3.40;;;8.90;99.90;;;;;;5052966;28;20470;-65
2023/03/25 03:51:45;;;;;;;17.73;3.78;;;8.90;99.90;;;;;;5048448;28;20033;-65
2023/03/25 03:54:14;;;;;;;15.57;3.63;;;8.90;99.90;;;;;;5045612;28;20052;-67
2023/03/25 03:56:52;;;;;;;9.55;3.40;;;8.90;99.90;;;;;;5053415;28;20113;-67
2023/03/25 03:59:20;;;;;;;9.93;3.33;;;8.90;99.90;;;;;;5047440;28;20089;-67
2023/03/25 04:01:52;;;;;;;12.27;3.33;;;8.90;99.90;;;;;;5039584;28;20037;-67
2023/03/25 04:04:25;;;;;;;12.43;3.00;;;8.90;99.90;;;;;;5052895;28;20052;-67
2023/03/25 04:06:56;;;;;;;14.85;4.30;;;8.90;99.90;;;;;;5051949;28;20247;-67
2023/03/25 04:10:02;;;;;;;13.15;3.53;;;8.90;99.90;;;;;;5040578;28;20049;-66
2023/03/25 04:12:31;;;;;;;10.30;3.25;;;8.90;99.90;;;;;;5010494;28;20095;-67
2023/03/25 04:15:01;;;;;;;11.98;3.42;;;8.90;99.90;;;;;;5046843;28;20053;-67
2023/03/25 04:17:29;;;;;;;11.32;3.58;;;8.90;99.90;;;;;;5048274;28;20406;-67
2023/03/25 04:19:55;;;;;;;13.05;3.38;;;8.90;99.90;;;;;;5045027;28;20037;-66
2023/03/25 04:22:21;;;;;;;12.55;3.47;;;8.80;99.90;;;;;;5051667;28;20102;-66
2023/03/25 04:24:53;;;;;;;14.63;3.85;;;8.80;99.90;;;;;;5046433;28;20119;-66
2023/03/25 04:27:21;;;;;;;10.65;3.88;;;8.80;99.90;;;;;;5042690;28;20044;-66
2023/03/25 04:29:47;;;;;;;15.80;4.15;;;8.80;99.90;;;;;;5052654;28;20518;-66
2023/03/25 04:32:13;;;;;;;13.70;4.97;;;8.80;99.90;;;;;;5049949;28;20040;-66
2023/03/25 04:34:39;;;;;;;15.07;5.05;;;8.80;99.90;;;;;;5044978;28;20048;-66
2023/03/25 04:37:05;;;;;;;15.52;4.53;;;8.80;99.90;;;;;;5052354;28;20028;-66
2023/03/25 04:39:31;;;;;;;12.93;4.45;;;8.80;99.90;;;;;;5051055;28;20168;-66
2023/03/25 04:42:00;;;;;;;11.88;4.00;;;8.80;99.90;;;;;;5045519;28;20029;-65
2023/03/25 04:44:27;;;;;;;16.65;4.65;;;8.80;99.90;;;;;;5045988;28;20037;-65
2023/03/25 04:46:54;;;;;;;15.82;4.70;;;8.80;99.90;;;;;;5044219;28;20044;-65
2023/03/25 04:49:22;;;;;;;12.95;5.05;;;8.80;99.90;;;;;;5052236;28;20106;-65
2023/03/25 04:51:52;;;;;;;10.68;4.10;;;8.80;99.90;;;;;;5046234;28;20053;-64
2023/03/25 04:54:22;;;;;;;15.63;4.32;;;8.70;99.90;;;;;;5047105;28;20548;-65
2023/03/25 04:56:49;;;;;;;13.60;4.45;;;8.80;99.90;;;;;;5051778;28;20140;-65
2023/03/25 04:59:16;;;;;;;17.27;4.80;;;8.80;99.90;;;;;;5040998;28;20029;-65
2023/03/25 05:01:44;;;;;;;15.02;5.05;;;8.70;99.90;;;;;;5049786;28;20052;-65
2023/03/25 05:04:12;;;;;;;15.75;4.70;;;8.80;99.90;;;;;;5052165;28;20522;-65
2023/03/25 05:06:41;;;;;;;15.32;5.82;;;8.70;99.90;;;;;;5050801;28;20415;-65
2023/03/25 05:09:11;;;;;;;14.32;5.40;;;8.70;99.90;;;;;;5034419;28;20533;-65
2023/03/25 05:11:38;;;;;;;10.45;4.57;;;8.80;99.90;;;;;;5045228;28;20116;-65
2023/03/25 05:14:05;;;;;;;10.52;4.75;;;8.80;99.90;;;;;;5047575;28;20116;-63
2023/03/25 05:16:31;;;;;;;16.55;5.85;;;8.70;99.90;;;;;;5042659;28;20045;-65
2023/03/25 05:18:56;;;;;;;12.13;6.38;;;8.80;99.90;;;;;;5051467;28;20395;-65
2023/03/25 05:21:22;;;;;;;16.25;6.28;;;8.70;99.90;;;;;;5051984;28;20364;-65
2023/03/25 05:23:47;;;;;;;13.80;5.32;;;8.70;99.90;;;;;;5047018;28;20695;-65
2023/03/25 05:26:13;;;;;;;13.43;5.40;;;8.70;99.90;;;;;;5046095;28;20037;-65
2023/03/25 05:28:40;;;;;;;20.98;8.00;;;8.70;99.90;;;;;;5051360;28;20033;-65
2023/03/25 05:31:09;;;;;;;13.80;6.57;;;8.70;99.90;;;;;;5045331;28;20112;-65
2023/03/25 05:33:44;;;;;;;16.15;6.65;;;8.70;99.90;;;;;;5039302;28;20029;-66
2023/03/25 05:36:15;;;;;;;23.33;7.15;;;8.60;99.90;;;;;;5057927;28;20040;-64
2023/03/25 05:38:42;;;;;;;23.50;6.40;;;8.50;99.90;;;;;;5058250;28;20032;-65
2023/03/25 05:41:16;;;;;;;20.83;6.45;;;8.60;99.90;;;;;;5056740;28;20025;-65
2023/03/25 05:43:46;;;;;;;14.10;6.82;;;8.60;99.90;;;;;;5052405;28;20116;-66
2023/03/25 05:46:24;;;;;;;16.90;6.55;;;8.70;99.90;;;;;;5053642;28;20520;-65
2023/03/25 05:48:50;;;;;;;13.75;4.82;;;8.70;99.90;;;;;;5043779;28;20049;-65
2023/03/25 05:51:17;;;;;;;12.05;5.65;;;8.80;99.90;;;;;;5056542;28;20057;-66
2023/03/25 05:53:44;;;;;;;16.10;5.78;;;8.80;99.90;;;;;;5058451;28;20036;-65
2023/03/25 05:56:12;;;;;;;11.70;5.10;;;8.90;99.90;;;;;;5048441;28;20051;-65
2023/03/25 05:58:38;;;;;;;13.45;4.75;;;8.90;99.90;;;;;;5041119;28;20399;-65
2023/03/25 06:01:04;;;;;;;14.15;5.15;;;8.90;99.90;;;;;;5055102;28;20039;-65
2023/03/25 06:03:33;;;;;;;10.20;4.15;;;8.90;99.90;;;;;;5048239;28;20040;-65
2023/03/25 06:05:59;;;;;;;11.95;4.05;;;8.90;99.90;;;;;;5046746;28;20041;-65
2023/03/25 06:08:25;;;;;;;11.10;3.38;;;8.90;99.90;;;;;;5056855;28;20033;-65
2023/03/25 06:11:00;;;;;;;13.30;3.72;;;8.90;99.90;;;;;;5057879;28;20051;-65
2023/03/25 06:13:26;;;;;;;10.30;3.17;;;8.90;99.90;;;;;;5048824;28;20103;-65
2023/03/25 06:15:58;;;;;;;7.95;3.38;;;8.80;99.90;;;;;;5052684;28;20057;-65
2023/03/25 06:18:24;;;;;;;10.73;3.97;;;8.80;99.90;;;;;;5054637;28;20364;-65
2023/03/25 06:20:56;;;;;;;8.90;3.08;;;8.70;99.90;;;;;;5049188;28;20056;-65
2023/03/25 06:23:23;;;;;;;11.07;2.92;;;8.70;99.90;;;;;;5052579;28;20056;-65
2023/03/25 06:25:50;;;;;;;6.10;2.50;;;8.70;99.90;;;;;;5031662;28;20053;-65
2023/03/25 06:28:17;;;;;;;8.38;2.97;;;8.60;99.90;;;;;;5052228;28;20081;-65
2023/03/25 06:30:44;;;;;;;7.07;2.72;;;8.60;99.90;;;;;;5048502;28;20089;-65
2023/03/25 06:33:10;;;;;;;7.63;2.97;;;8.60;99.90;;;;;;5055740;28;20033;-64
2023/03/25 06:35:35;;;;;;;10.15;3.30;;;8.60;99.90;;;;;;5057111;28;20550;-65
2023/03/25 06:38:01;;;;;;;9.13;2.78;;;8.60;99.90;;;;;;5038659;28;20073;-65
2023/03/25 06:40:27;;;;;;;9.18;2.92;;;8.60;99.90;;;;;;5052664;28;20037;-64
2023/03/25 06:42:52;;;;;;;12.70;3.13;;;8.60;99.90;;;;;;5058021;28;20549;-65
2023/03/25 06:45:18;;;;;;;10.95;3.05;;;8.60;99.90;;;;;;5055604;28;20051;-65
2023/03/25 06:47:44;;;;;;;14.25;3.30;;;8.60;99.90;;;;;;5046510;28;20406;-64
2023/03/25 06:50:10;;;;;;;8.82;3.10;;;8.60;99.90;;;;;;5053126;28;20112;-64
2023/03/25 06:52:35;;;;;;;8.02;2.97;;;8.60;99.90;;;;;;5051742;28;20815;-64
2023/03/25 06:55:01;;;;;;;8.35;3.45;;;8.70;99.90;;;;;;5039252;28;20072;-64
2023/03/25 06:57:27;;;;;;;14.82;3.15;;;8.70;99.90;;;;;;5056416;28;20758;-65
2023/03/25 06:59:52;;;;;;;19.00;3.70;;;8.80;99.90;;;;;;5056427;28;20116;-65
2023/03/25 07:02:18;;;;;;;10.10;3.30;;;8.80;99.90;;;;;;5054335;28;20482;-63
2023/03/25 07:04:44;;;;;;;10.35;3.35;;;8.80;99.90;;;;;;5052836;28;20052;-65
2023/03/25 07:07:09;;;;;;;12.18;3.50;;;8.90;99.90;;;;;;5056812;28;20060;-65
2023/03/25 07:09:35;;;;;;;11.52;3.35;;;8.90;99.90;;;;;;5044657;28;20041;-65
2023/03/25 07:12:00;;;;;;;11.98;3.97;;;9.00;99.90;;;;;;5042244;28;20553;-65
2023/03/25 07:14:26;;;;;;;13.43;4.00;;;9.10;99.90;;;;;;5059070;28;20099;-65
2023/03/25 07:16:51;;;;;;;11.57;3.80;;;9.20;99.90;;;;;;5059643;28;20048;-64
2023/03/25 07:19:17;;;;;;;11.93;4.10;;;9.30;99.90;;;;;;5051229;28;20083;-65
2023/03/25 07:21:42;;;;;;;15.43;3.95;;;9.30;99.90;;;;;;5056342;28;20037;-64
2023/03/25 07:24:08;;;;;;;9.55;3.90;;;9.30;99.90;;;;;;5058590;28;20048;-65
2023/03/25 07:26:34;;;;;;;14.85;4.07;;;9.30;99.90;;;;;;5053322;28;20045;-65
2023/03/25 07:29:00;;;;;;;15.52;4.05;;;9.40;99.90;;;;;;5041399;28;20068;-65
2023/03/25 07:31:25;;;;;;;16.33;4.03;;;9.40;99.90;;;;;;5045268;28;20037;-65
2023/03/25 07:33:51;;;;;;;20.65;4.88;;;9.40;99.90;;;;;;5060655;28;20108;-65
2023/03/25 07:36:17;;;;;;;19.95;4.85;;;9.50;99.90;;;;;;5049132;28;20037;-65
2023/03/25 07:38:43;;;;;;;14.85;4.10;;;9.40;99.90;;;;;;5039413;28;20038;-65
2023/03/25 07:41:10;;;;;;;17.58;3.97;;;9.40;99.90;;;;;;5051815;28;20068;-64
2023/03/25 07:43:37;;;;;;;15.25;4.00;;;9.30;99.90;;;;;;5053359;28;20572;-64
2023/03/25 07:46:03;;;;;;;15.38;4.18;;;9.30;99.90;;;;;;5044898;28;20029;-65
2023/03/25 07:48:29;;;;;;;16.92;5.00;;;9.20;99.90;;;;;;5050210;28;20407;-65
2023/03/25 07:50:55;;;;;;;18.88;4.25;;;9.20;99.90;;;;;;5073621;28;20045;-64
2023/03/25 07:53:21;;;;;;;20.95;4.28;;;9.20;99.90;;;;;;5051256;28;20036;-65
2023/03/25 07:55:49;;;;;;;16.73;4.18;;;9.40;99.90;;;;;;5049414;28;20087;-65
2023/03/25 07:58:15;;;;;;;16.50;4.05;;;9.50;99.90;;;;;;5052776;28;20315;-65
2023/03/25 08:00:41;;;;;;;16.02;3.78;;;9.50;99.90;;;;;;5049894;28;20106;-65
2023/03/25 08:03:06;;;;;;;17.08;3.92;;;9.60;99.90;;;;;;5050915;28;20036;-65
2023/03/25 08:05:32;;;;;;;22.08;3.88;;;9.60;99.90;;;;;;5053592;28;20042;-65
2023/03/25 08:07:59;;;;;;;14.65;3.90;;;9.70;99.90;;;;;;5053980;28;20041;-67
2023/03/25 08:10:25;;;;;;;11.93;3.10;;;9.70;99.90;;;;;;5053835;28;20041;-65
2023/03/25 08:12:54;;;;;;;11.23;3.08;;;9.70;99.90;;;;;;5060125;28;20044;-64
2023/03/25 08:15:23;;;;;;;13.57;3.58;;;9.60;99.90;;;;;;5060809;28;20076;-65
2023/03/25 08:17:51;;;;;;;10.70;3.03;;;9.70;99.90;;;;;;5048816;28;20094;-65
2023/03/25 08:20:17;;;;;;;18.55;3.28;;;9.70;99.90;;;;;;5057612;28;20103;-64
2023/03/25 08:22:46;;;;;;;18.02;3.40;;;9.70;99.90;;;;;;5057875;28;20068;-65
2023/03/25 08:25:13;;;;;;;14.27;3.38;;;9.80;99.90;;;;;;5048826;28;20141;-65
2023/03/25 08:27:39;;;;;;;13.00;2.85;;;9.90;99.90;;;;;;5041483;28;20127;-64
2023/03/25 08:30:08;;;;;;;18.27;3.65;;;9.90;99.90;;;;;;5052580;28;20095;-63
2023/03/25 08:32:35;;;;;;;15.55;3.00;;;9.80;99.90;;;;;;5052553;28;20039;-64
2023/03/25 08:35:04;;;;;;;16.02;3.00;;;9.80;99.90;;;;;;5040380;28;20041;-63
2023/03/25 08:37:33;;;;;;;13.02;3.20;;;9.80;99.90;;;;;;5046682;28;20041;-64
2023/03/25 08:40:09;;;;;;;11.32;3.17;;;9.70;99.90;;;;;;5051305;28;20051;-64
2023/03/25 08:42:35;;;;;;;14.73;3.50;;;9.60;99.90;;;;;;5050395;28;20069;-64
2023/03/25 08:45:01;;;;;;;13.93;4.05;;;9.50;99.90;;;;;;5035624;28;20116;-63
2023/03/25 08:47:27;;;;;;;14.63;3.33;;;9.60;99.90;;;;;;5035753;28;20466;-64
2023/03/25 08:49:52;;;;;;;13.02;3.40;;;9.80;99.90;;;;;;5043631;28;20144;-64
2023/03/25 08:52:18;;;;;;;15.45;3.60;;;9.80;99.90;;;;;;5045159;28;20065;-64
2023/03/25 08:54:43;;;;;;;18.77;3.60;;;9.80;99.90;;;;;;5048898;28;20120;-64
2023/03/25 08:57:09;;;;;;;13.98;3.60;;;9.90;99.90;;;;;;5052006;28;20044;-64
2023/03/25 08:59:34;;;;;;;12.55;3.42;;;9.90;99.90;;;;;;5052315;28;20037;-64
2023/03/25 09:02:00;;;;;;;15.07;3.58;;;10.00;99.90;;;;;;5048878;28;20521;-64
2023/03/25 09:04:26;;;;;;;16.38;3.97;;;10.20;99.90;;;;;;5041578;28;20112;-64
2023/03/25 09:06:51;;;;;;;23.67;4.35;;;10.30;99.90;;;;;;5051529;28;20091;-64
2023/03/25 09:09:18;;;;;;;12.55;3.55;;;10.30;99.90;;;;;;5045399;28;20466;-63
2023/03/25 09:11:44;;;;;;;21.25;4.47;;;10.30;99.90;;;;;;5042554;28;20045;-64
2023/03/25 09:14:10;;;;;;;17.77;3.90;;;10.30;99.90;;;;;;5051513;28;20450;-64
2023/03/25 09:16:35;;;;;;;14.07;3.70;;;10.20;99.90;;;;;;5040639;28;20045;-64
2023/03/25 09:19:02;;;;;;;18.00;4.13;;;10.00;99.90;;;;;;5036593;28;20087;-64
2023/03/25 09:21:28;;;;;;;18.77;4.18;;;9.90;99.90;;;;;;5051583;28;20029;-64
2023/03/25 09:23:53;;;;;;;15.35;3.72;;;9.80;99.90;;;;;;5051813;28;20094;-64
2023/03/25 09:26:19;;;;;;;12.80;3.97;;;9.90;99.90;;;;;;5045064;28;20029;-64
2023/03/25 09:28:44;;;;;;;14.40;4.22;;;10.00;99.90;;;;;;5049318;28;20049;-63
2023/03/25 09:31:10;;;;;;;17.35;4.10;;;10.30;99.90;;;;;;5044896;28;20033;-63
2023/03/25 09:33:36;;;;;;;17.02;3.20;;;10.50;99.90;;;;;;5037432;28;20041;-64
2023/03/25 09:36:02;;;;;;;16.02;3.92;;;10.60;99.90;;;;;;5051253;28;20439;-64
2023/03/25 09:38:28;;;;;;;19.80;4.15;;;10.90;99.90;;;;;;5048561;28;20086;-63
2023/03/25 09:40:54;;;;;;;15.65;3.30;;;11.00;99.90;;;;;;5029861;28;20033;-65
2023/03/25 09:43:50;;;;;;;18.60;4.00;;;11.10;99.90;;;;;;5040896;28;20041;-64
2023/03/25 09:46:16;;;;;;;14.25;3.75;;;11.10;99.90;;;;;;5040503;28;20052;-65
2023/03/25 09:48:44;;;;;;;15.52;3.60;;;11.00;99.90;;;;;;5036287;28;20560;-65
2023/03/25 09:51:28;;;;;;;15.88;3.63;;;10.80;99.90;;;;;;5051463;28;20033;-65
2023/03/25 09:53:53;;;;;;;14.85;3.67;;;10.60;99.90;;;;;;5051831;28;20507;-62
2023/03/25 09:56:23;;;;;;;16.17;3.58;;;10.50;99.90;;;;;;5036104;28;20124;-64
2023/03/25 09:58:51;;;;;;;15.10;3.13;;;10.40;99.90;;;;;;5045716;28;20053;-64
2023/03/25 10:01:41;;;;;;;15.93;3.50;;;10.50;99.90;;;;;;5044294;28;20510;-65
2023/03/25 10:04:35;;;;;;;19.75;3.78;;;10.70;99.90;;;;;;5059219;28;20177;-64
2023/03/25 10:07:33;;;;;;;14.10;3.90;;;10.80;99.90;;;;;;5059544;28;20040;-64
2023/03/25 10:10:13;;;;;;;13.40;3.58;;;11.00;99.90;;;;;;5046044;28;20075;-64
2023/03/25 10:12:54;;;;;;;11.90;3.20;;;11.00;99.90;;;;;;5055328;28;20456;-65
2023/03/25 10:15:29;;;;;;;12.27;3.45;;;10.70;99.90;;;;;;5048294;28;20057;-64
2023/03/25 10:17:57;;;;;;;19.33;3.63;;;10.50;99.90;;;;;;5049648;28;20127;-65
2023/03/25 10:20:38;;;;;;;16.60;3.40;;;10.50;99.90;;;;;;5055935;28;20438;-64
2023/03/25 10:23:20;;;;;;;15.73;3.40;;;10.60;99.90;;;;;;5055639;28;20037;-64
2023/03/25 10:25:52;;;;;;;17.77;3.92;;;10.70;99.90;;;;;;5054960;28;20084;-66
2023/03/25 10:28:30;;;;;;;18.60;3.65;;;10.60;99.90;;;;;;5061537;28;20036;-66
2023/03/25 10:30:55;;;;;;;15.55;3.60;;;10.70;99.90;;;;;;5070579;28;20429;-65
2023/03/25 10:33:30;;;;;;;13.68;3.08;;;10.80;99.90;;;;;;5041702;28;20033;-65
2023/03/25 10:35:58;;;;;;;15.45;3.58;;;10.70;99.90;;;;;;5042387;28;20037;-66
2023/03/25 10:38:24;;;;;;;21.08;3.80;;;10.70;99.90;;;;;;5050162;28;20045;-65
2023/03/25 10:40:59;;;;;;;20.65;3.47;;;10.70;99.90;;;;;;5049259;28;20547;-66
2023/03/25 10:43:32;;;;;;;16.45;3.78;;;10.70;99.90;;;;;;5044831;28;20040;-65
2023/03/25 10:46:15;;;;;;;11.77;2.78;;;10.80;99.90;;;;;;5055070;28;20045;-65
2023/03/25 10:48:41;;;;;;;19.13;4.15;;;10.80;99.90;;;;;;5048650;28;20553;-65
2023/03/25 10:51:10;;;;;;;16.15;3.42;;;10.80;99.90;;;;;;5043617;28;20035;-65
2023/03/25 10:53:38;;;;;;;19.92;3.28;;;11.00;99.90;;;;;;5063960;28;20028;-65
2023/03/25 10:56:12;;;;;;;16.45;3.35;;;11.20;99.90;;;;;;5074886;28;20559;-65
2023/03/25 10:58:39;;;;;;;15.18;2.88;;;11.50;99.90;;;;;;5052833;28;20047;-65
2023/03/25 11:01:14;;;;;;;13.15;3.20;;;11.80;99.90;;;;;;5046395;28;20562;-66
2023/03/25 11:03:41;;;;;;;16.40;2.85;;;11.80;99.90;;;;;;5041131;28;20438;-65
2023/03/25 11:06:23;;;;;;;12.10;2.83;;;11.90;99.90;;;;;;5040940;28;20037;-64
2023/03/25 11:09:06;;;;;;;12.63;2.75;;;11.70;99.90;;;;;;5047701;28;20044;-65
2023/03/25 11:11:34;;;;;;;15.65;3.00;;;11.40;99.90;;;;;;5041192;28;20053;-64
2023/03/25 11:14:02;;;;;;;16.30;2.95;;;11.10;99.90;;;;;;5045243;28;20029;-65
2023/03/25 11:16:40;;;;;;;15.18;3.25;;;11.00;99.90;;;;;;5053734;28;20037;-64
2023/03/25 11:19:12;;;;;;;14.93;2.92;;;10.90;99.90;;;;;;5049545;28;20048;-63
2023/03/25 11:21:38;;;;;;;20.80;3.22;;;10.90;99.90;;;;;;5038200;28;20047;-65
2023/03/25 11:24:05;;;;;;;19.88;3.22;;;10.90;99.90;;;;;;5035862;28;20406;-64
2023/03/25 11:26:39;;;;;;;16.85;3.40;;;10.90;99.90;;;;;;5050461;28;20037;-65
2023/03/25 11:29:13;;;;;;;19.70;3.35;;;11.00;99.90;;;;;;5042607;28;20090;-65
2023/03/25 11:31:40;;;;;;;18.25;3.60;;;11.10;99.90;;;;;;5050282;28;20044;-65
2023/03/25 11:34:09;;;;;;;14.85;2.53;;;11.20;99.90;;;;;;5052507;28;20115;-64
2023/03/25 11:36:46;;;;;;;10.10;2.55;;;11.20;99.90;;;;;;5054021;28;20044;-65
2023/03/25 11:39:17;;;;;;;13.70;3.35;;;11.20;99.90;;;;;;5041652;28;20048;-66
2023/03/25 11:41:45;;;;;;;16.80;3.75;;;11.20;99.90;;;;;;5042257;28;20128;-65
2023/03/25 11:44:28;;;;;;;13.95;2.72;;;11.30;99.90;;;;;;5053485;28;20090;-65
2023/03/25 11:46:59;;;;;;;16.20;2.65;;;11.40;99.90;;;;;;5050087;28;20037;-65
2023/03/25 11:49:25;;;;;;;15.25;3.13;;;11.60;99.90;;;;;;5040164;28;20060;-65
2023/03/25 11:52:05;;;;;;;11.95;2.83;;;11.60;99.90;;;;;;5051148;28;20037;-65
2023/03/25 11:54:33;;;;;;;18.33;2.55;;;11.60;99.90;;;;;;5053839;28;20075;-66
2023/03/25 11:57:03;;;;;;;11.13;2.95;;;11.60;99.90;;;;;;5043882;28;20094;-64
2023/03/25 11:59:43;;;;;;;11.23;2.67;;;11.60;99.90;;;;;;5044513;28;20048;-65
2023/03/25 12:02:27;;;;;;;16.88;2.50;;;11.60;99.90;;;;;;5046340;28;20029;-64
2023/03/25 12:05:00;;;;;;;14.63;3.22;;;11.60;99.90;;;;;;5039117;28;20119;-64
2023/03/25 12:07:25;;;;;;;11.43;2.45;;;11.60;99.90;;;;;;5050330;28;20122;-64
2023/03/25 12:10:04;;;;;;;16.90;2.78;;;11.70;99.90;;;;;;5051443;28;20072;-64
2023/03/25 12:12:51;;;;;;;14.70;3.13;;;11.70;99.90;;;;;;5036646;28;20488;-63
2023/03/25 12:15:20;;;;;;;13.35;2.60;;;11.90;99.90;;;;;;5040094;28;20036;-64
2023/03/25 12:18:00;;;;;;;16.27;3.00;;;12.00;99.90;;;;;;5052475;28;20119;-64
2023/03/25 12:20:26;;;;;;;11.98;2.53;;;12.00;99.90;;;;;;5043786;28;20037;-64
2023/03/25 12:23:09;;;;;;;11.48;2.50;;;11.90;99.90;;;;;;5050785;28;20149;-65
2023/03/25 12:26:06;;;;;;;16.58;3.47;;;11.80;99.90;;;;;;5052940;28;20049;-65
2023/03/25 12:28:56;;;;;;;13.77;2.60;;;12.00;99.90;;;;;;5033140;28;20045;-64
2023/03/25 12:32:05;;;;;;;14.30;3.08;;;12.40;99.90;;;;;;5039010;28;20033;-64
2023/03/25 12:35:09;;;;;;;11.38;2.70;;;12.60;99.90;;;;;;5014851;28;20049;-64
2023/03/25 12:37:52;;;;;;;12.88;2.85;;;12.40;99.90;;;;;;5004194;28;20049;-64
2023/03/25 12:40:29;;;;;;;12.50;2.63;;;12.20;99.90;;;;;;5047137;28;20045;-65
2023/03/25 12:43:31;;;;;;;11.63;2.80;;;12.10;99.90;;;;;;5051725;28;20052;-64
2023/03/25 12:46:07;;;;;;;;;;;12.10;99.90;;;;;;5042128;28;20040;-64
2023/03/25 12:48:51;;;;;;;13.32;2.63;;;12.10;99.90;;;;;;5054980;28;19917;-64
2023/03/25 12:51:22;;;;;;;12.80;2.53;;;12.10;99.90;;;;;;5057076;28;20037;-64
2023/03/25 12:53:50;;;;;;;;;;;12.10;99.90;;;;;;5064141;28;20099;-64
2023/03/25 12:56:25;;;;;;;12.70;2.25;;;12.10;99.90;;;;;;5052303;28;19971;-65
2023/03/25 12:59:15;;;;;;;11.30;2.80;;;12.00;99.90;;;;;;5055211;28;20033;-65
2023/03/25 13:02:05;;;;;;;12.48;2.92;;;12.00;99.90;;;;;;5045628;28;20055;-64
2023/03/25 13:04:55;;;;;;;13.25;3.38;;;12.00;99.90;;;;;;5058051;28;20588;-65